Time;durP1;ratioP1;P1;durP2;ratioP2;P2;SDS_P1;SDS_P2;PMS_P1;PMS_P2;Temp;Humidity;BMP_temperature;BMP_pressure;BME280_temperature;BME280_humidity;BME280_pressure;Samples;Min_cycle;Max_cycle;Signal;HPM_P1;HPM_P2
2022/10/10 00:01:12;;;;;;;19.43;12.77;;;7.70;99.90;;;;;;5041893;28;20604;-81
2022/10/10 00:03:39;;;;;;;19.50;12.60;;;8.10;99.90;;;;;;5021974;28;20259;-81
2022/10/10 00:06:06;;;;;;;16.17;11.40;;;7.60;99.90;;;;;;5025383;28;20322;-82
2022/10/10 00:08:34;;;;;;;15.77;11.53;;;7.60;99.90;;;;;;5034980;28;20229;-80
2022/10/10 00:11:04;;;;;;;15.43;10.77;;;7.60;99.90;;;;;;5042742;28;20290;-81
2022/10/10 00:13:31;;;;;;;16.20;11.73;;;7.30;99.90;;;;;;5023956;28;20234;-82
2022/10/10 00:15:58;;;;;;;17.97;11.37;;;7.60;99.90;;;;;;5045515;28;20213;-81
2022/10/10 00:18:25;;;;;;;17.63;11.40;;;7.50;99.90;;;;;;5030845;28;20698;-82
2022/10/10 00:20:53;;;;;;;16.67;11.30;;;7.50;99.90;;;;;;5031168;28;20607;-83
2022/10/10 00:23:20;;;;;;;13.50;9.77;;;7.50;99.90;;;;;;5031483;28;20225;-80
2022/10/10 00:25:50;;;;;;;17.57;12.20;;;7.50;99.90;;;;;;5041981;28;20209;-82
2022/10/10 00:28:17;;;;;;;15.63;10.77;;;7.50;99.90;;;;;;5019266;28;20650;-83
2022/10/10 00:30:45;;;;;;;18.60;11.53;;;7.40;99.90;;;;;;5021905;28;20213;-82
2022/10/10 00:33:14;;;;;;;14.37;10.73;;;7.50;99.90;;;;;;5032442;28;20260;-80
2022/10/10 00:35:41;;;;;;;16.17;10.90;;;7.70;99.90;;;;;;5042698;28;20213;-80
2022/10/10 00:38:09;;;;;;;15.90;10.90;;;7.40;99.90;;;;;;5038351;28;20295;-81
2022/10/10 00:40:48;;;;;;;13.43;10.23;;;7.40;99.90;;;;;;5045912;28;20243;-82
2022/10/10 00:43:17;;;;;;;14.67;10.80;;;7.30;99.90;;;;;;5047098;28;20315;-81
2022/10/10 00:45:45;;;;;;;15.20;11.17;;;7.40;99.90;;;;;;5041737;28;20206;-80
2022/10/10 00:48:19;;;;;;;19.63;10.77;;;7.30;99.90;;;;;;5047691;28;20225;-80
2022/10/10 00:51:06;;;;;;;16.40;10.20;;;7.30;99.90;;;;;;5025510;28;20303;-81
2022/10/10 00:53:54;;;;;;;17.30;11.23;;;7.30;99.90;;;;;;5039004;28;20269;-81
2022/10/10 00:56:25;;;;;;;15.90;10.90;;;7.20;99.90;;;;;;5044905;28;20203;-81
2022/10/10 00:58:55;;;;;;;18.93;11.30;;;7.20;99.90;;;;;;5048681;28;20743;-79
2022/10/10 01:01:22;;;;;;;16.57;10.53;;;7.20;99.90;;;;;;5050881;28;20216;-81
2022/10/10 01:03:49;;;;;;;17.50;11.13;;;7.20;99.90;;;;;;5044248;28;20245;-81
2022/10/10 01:06:16;;;;;;;16.73;11.80;;;7.10;99.90;;;;;;5039999;28;20205;-80
2022/10/10 01:08:43;;;;;;;19.20;12.33;;;7.10;99.90;;;;;;5028392;28;20318;-81
2022/10/10 01:11:28;;;;;;;20.97;12.27;;;7.10;99.90;;;;;;5044932;28;20275;-81
2022/10/10 01:14:26;;;;;;;19.17;12.37;;;7.10;99.90;;;;;;5048014;28;20216;-81
2022/10/10 01:17:08;;;;;;;18.20;11.47;;;7.20;99.90;;;;;;5045446;28;20287;-82
2022/10/10 01:19:57;;;;;;;16.33;11.97;;;7.50;99.90;;;;;;5044023;28;20646;-82
2022/10/10 01:22:45;;;;;;;24.37;13.03;;;7.20;99.90;;;;;;5039481;28;20210;-82
2022/10/10 01:25:14;;;;;;;18.23;11.90;;;7.10;99.90;;;;;;5042789;28;20241;-82
2022/10/10 01:27:51;;;;;;;19.33;11.93;;;7.20;99.90;;;;;;5046062;28;20214;-82
2022/10/10 01:30:23;;;;;;;20.40;12.60;;;7.20;99.90;;;;;;5043505;28;20219;-81
2022/10/10 01:33:07;;;;;;;18.93;11.23;;;7.20;99.90;;;;;;5024583;28;20720;-81
2022/10/10 01:35:57;;;;;;;21.57;12.60;;;7.10;99.90;;;;;;5042828;28;20205;-82
2022/10/10 01:38:29;;;;;;;17.63;11.53;;;7.20;99.90;;;;;;5024708;28;20234;-82
2022/10/10 01:41:04;;;;;;;19.30;11.87;;;7.20;99.90;;;;;;5022486;28;20216;-81
2022/10/10 01:43:32;;;;;;;18.73;12.97;;;7.20;99.90;;;;;;5042786;28;20236;-82
2022/10/10 01:46:08;;;;;;;23.40;13.07;;;7.30;99.90;;;;;;5038026;28;20222;-82
2022/10/10 01:48:35;;;;;;;21.53;13.80;;;7.20;99.90;;;;;;5041790;28;20603;-83
2022/10/10 01:51:24;;;;;;;17.27;12.20;;;7.30;99.90;;;;;;5025358;28;20299;-82
2022/10/10 01:54:03;;;;;;;18.40;12.73;;;7.30;99.90;;;;;;5043394;28;20255;-82
2022/10/10 01:57:01;;;;;;;19.27;12.50;;;7.50;99.90;;;;;;5044506;28;20556;-83
2022/10/10 01:59:36;;;;;;;19.07;11.77;;;7.30;99.90;;;;;;5044222;28;20209;-82
2022/10/10 02:02:24;;;;;;;25.60;12.03;;;7.30;99.90;;;;;;5025329;28;20216;-81
2022/10/10 02:05:23;;;;;;;17.37;12.33;;;7.40;99.90;;;;;;5045169;28;20536;-81
2022/10/10 02:07:57;;;;;;;18.60;11.73;;;7.40;99.90;;;;;;5041609;28;20245;-80
2022/10/10 02:10:32;;;;;;;17.43;11.73;;;7.40;99.90;;;;;;5024785;28;20216;-79
2022/10/10 02:13:01;;;;;;;20.67;12.43;;;7.60;99.90;;;;;;5026435;28;20291;-80
2022/10/10 02:15:50;;;;;;;19.90;11.53;;;7.40;99.90;;;;;;5039088;28;20627;-81
2022/10/10 02:18:21;;;;;;;16.27;11.67;;;7.50;99.90;;;;;;5041546;28;20280;-79
2022/10/10 02:20:51;;;;;;;17.23;12.07;;;7.50;99.90;;;;;;5037224;28;20237;-81
2022/10/10 02:23:20;;;;;;;17.97;11.93;;;7.50;99.90;;;;;;5031203;28;20634;-81
2022/10/10 02:25:52;;;;;;;23.43;12.03;;;7.50;99.90;;;;;;5044715;28;20320;-79
2022/10/10 02:28:49;;;;;;;19.40;11.27;;;7.40;99.90;;;;;;5049505;28;20292;-81
2022/10/10 02:31:39;;;;;;;20.73;12.30;;;7.40;99.90;;;;;;5038428;28;20752;-81
2022/10/10 02:34:16;;;;;;;19.13;10.73;;;7.70;99.90;;;;;;5043345;28;20229;-81
2022/10/10 02:36:48;;;;;;;21.60;12.37;;;7.40;99.90;;;;;;5043080;28;20722;-81
2022/10/10 02:39:19;;;;;;;17.97;11.83;;;7.70;99.90;;;;;;5028142;28;20201;-80
2022/10/10 02:41:49;;;;;;;20.20;11.77;;;7.50;99.90;;;;;;5026897;28;20612;-81
2022/10/10 02:44:18;;;;;;;17.27;11.83;;;7.50;99.90;;;;;;5037253;28;20572;-78
2022/10/10 02:46:45;;;;;;;17.43;11.47;;;7.60;99.90;;;;;;5020628;28;20225;-80
2022/10/10 02:49:13;;;;;;;20.70;11.73;;;7.50;99.90;;;;;;5026790;28;20263;-82
2022/10/10 02:51:40;;;;;;;20.60;11.80;;;7.50;99.90;;;;;;5039053;28;20214;-80
2022/10/10 02:54:07;;;;;;;20.23;11.77;;;7.50;99.90;;;;;;5044638;28;20573;-80
2022/10/10 02:56:34;;;;;;;16.93;10.07;;;7.50;99.90;;;;;;5035005;28;20213;-81
2022/10/10 02:59:01;;;;;;;16.50;9.13;;;7.50;99.90;;;;;;5041827;28;20572;-81
2022/10/10 03:01:28;;;;;;;16.87;11.43;;;7.50;99.90;;;;;;5047817;28;20213;-80
2022/10/10 03:04:00;;;;;;;17.57;11.13;;;7.50;99.90;;;;;;5043890;28;20336;-81
2022/10/10 03:06:27;;;;;;;19.33;10.60;;;7.50;99.90;;;;;;5042433;28;20225;-79
2022/10/10 03:08:54;;;;;;;15.70;10.13;;;7.50;99.90;;;;;;5035076;28;20242;-80
2022/10/10 03:11:21;;;;;;;19.30;10.77;;;7.50;99.90;;;;;;5025490;28;20204;-80
2022/10/10 03:13:48;;;;;;;16.87;11.97;;;7.50;99.90;;;;;;5028420;28;20558;-82
2022/10/10 03:16:15;;;;;;;22.80;10.80;;;7.40;99.90;;;;;;5026918;28;20722;-81
2022/10/10 03:18:42;;;;;;;19.20;11.47;;;7.40;99.90;;;;;;5021635;28;20284;-79
2022/10/10 03:21:09;;;;;;;18.47;11.23;;;7.80;99.90;;;;;;5036039;28;20210;-79
2022/10/10 03:23:37;;;;;;;18.60;11.17;;;7.80;99.90;;;;;;5040874;28;20214;-81
2022/10/10 03:26:05;;;;;;;19.87;11.13;;;7.40;99.90;;;;;;5027063;28;20201;-80
2022/10/10 03:28:32;;;;;;;19.53;10.47;;;7.40;99.90;;;;;;5044166;28;20214;-81
2022/10/10 03:30:59;;;;;;;18.33;10.90;;;7.40;99.90;;;;;;5041364;28;20612;-80
2022/10/10 03:33:26;;;;;;;16.40;11.40;;;7.50;99.90;;;;;;5024696;28;20248;-80
2022/10/10 03:35:53;;;;;;;18.20;10.83;;;7.50;99.90;;;;;;5028265;28;20216;-81
2022/10/10 03:38:20;;;;;;;20.30;11.63;;;7.50;99.90;;;;;;5043588;28;20320;-81
2022/10/10 03:40:47;;;;;;;15.10;10.63;;;7.50;99.90;;;;;;5030324;28;20284;-80
2022/10/10 03:43:14;;;;;;;18.13;11.17;;;7.60;99.90;;;;;;5040749;28;20213;-80
2022/10/10 03:45:43;;;;;;;16.17;10.20;;;7.50;99.90;;;;;;5023930;28;20232;-80
2022/10/10 03:48:11;;;;;;;18.07;10.87;;;7.50;99.90;;;;;;5040878;28;20689;-79
2022/10/10 03:50:38;;;;;;;15.60;9.90;;;7.50;99.90;;;;;;5038891;28;20614;-79
2022/10/10 03:53:05;;;;;;;16.40;10.87;;;7.70;99.90;;;;;;5030813;28;20209;-81
2022/10/10 03:55:32;;;;;;;17.53;10.67;;;7.50;99.90;;;;;;5021763;28;20284;-79
2022/10/10 03:57:59;;;;;;;18.37;11.00;;;7.50;99.90;;;;;;5037385;28;20681;-79
2022/10/10 04:00:28;;;;;;;18.50;10.83;;;7.50;99.90;;;;;;5039378;28;20203;-79
2022/10/10 04:02:55;;;;;;;17.17;10.63;;;7.50;99.90;;;;;;5039540;28;20217;-80
2022/10/10 04:05:22;;;;;;;19.47;11.50;;;7.50;99.90;;;;;;5042915;28;20588;-79
2022/10/10 04:07:49;;;;;;;20.07;11.53;;;7.50;99.90;;;;;;5024512;28;20597;-82
2022/10/10 04:10:19;;;;;;;18.73;10.93;;;7.50;99.90;;;;;;5044710;28;20198;-82
2022/10/10 04:12:46;;;;;;;17.63;10.93;;;7.50;99.90;;;;;;5041154;28;20311;-81
2022/10/10 04:15:13;;;;;;;19.60;11.00;;;7.50;99.90;;;;;;5043069;28;20186;-80
2022/10/10 04:17:40;;;;;;;16.97;11.10;;;7.50;99.90;;;;;;5039684;28;20239;-79
2022/10/10 04:20:07;;;;;;;17.80;11.10;;;7.30;99.90;;;;;;5048417;28;20636;-80
2022/10/10 04:22:34;;;;;;;18.00;11.40;;;7.50;99.90;;;;;;5025703;28;20197;-77
2022/10/10 04:25:01;;;;;;;18.27;10.63;;;7.50;99.90;;;;;;5044917;28;20680;-80
2022/10/10 04:27:30;;;;;;;17.37;10.37;;;7.50;99.90;;;;;;5042803;28;20208;-81
2022/10/10 04:29:57;;;;;;;19.27;11.53;;;7.50;99.90;;;;;;5028125;28;20548;-79
2022/10/10 04:32:24;;;;;;;19.27;11.47;;;7.50;99.90;;;;;;5026505;28;20220;-79
2022/10/10 04:34:51;;;;;;;16.50;10.57;;;7.50;99.90;;;;;;5027568;28;20225;-80
2022/10/10 04:37:18;;;;;;;21.17;11.63;;;7.40;99.90;;;;;;5042111;28;20200;-78
2022/10/10 04:39:44;;;;;;;20.57;11.37;;;7.40;99.90;;;;;;5041515;28;20278;-78
2022/10/10 04:42:11;;;;;;;14.93;10.60;;;7.40;99.90;;;;;;5042588;28;20255;-79
2022/10/10 04:44:38;;;;;;;16.43;10.97;;;7.40;99.90;;;;;;5045044;28;20209;-79
2022/10/10 04:47:06;;;;;;;18.50;11.77;;;7.30;99.90;;;;;;5025152;28;20252;-80
2022/10/10 04:49:32;;;;;;;19.77;11.60;;;7.30;99.90;;;;;;5042943;28;20292;-79
2022/10/10 04:51:59;;;;;;;20.50;11.53;;;7.30;99.90;;;;;;5023293;28;20741;-77
2022/10/10 04:54:26;;;;;;;19.87;11.70;;;7.30;99.90;;;;;;5023240;28;20684;-76
2022/10/10 04:56:53;;;;;;;20.33;12.93;;;7.30;99.90;;;;;;5049740;28;20757;-79
2022/10/10 04:59:20;;;;;;;16.63;12.13;;;7.30;99.90;;;;;;5039122;28;20240;-79
2022/10/10 05:01:50;;;;;;;17.17;11.60;;;7.30;99.90;;;;;;5047364;28;20642;-78
2022/10/10 05:04:17;;;;;;;18.00;11.50;;;7.20;99.90;;;;;;5048619;28;20201;-79
2022/10/10 05:06:44;;;;;;;19.90;11.23;;;7.20;99.90;;;;;;5047483;28;20292;-78
2022/10/10 05:09:11;;;;;;;17.87;11.30;;;7.20;99.90;;;;;;5032760;28;20244;-79
2022/10/10 05:11:38;;;;;;;17.73;11.07;;;7.00;99.90;;;;;;5044260;28;20610;-80
2022/10/10 05:14:05;;;;;;;17.23;10.83;;;7.20;99.90;;;;;;5045174;28;20208;-80
2022/10/10 05:16:32;;;;;;;16.90;11.20;;;7.20;99.90;;;;;;5046907;28;20248;-79
2022/10/10 05:19:02;;;;;;;19.40;11.07;;;7.20;99.90;;;;;;5051636;28;20332;-78
2022/10/10 05:21:30;;;;;;;16.87;10.53;;;7.20;99.90;;;;;;5056139;28;20204;-76
2022/10/10 05:23:57;;;;;;;17.30;11.03;;;7.20;99.90;;;;;;5055371;28;20209;-79
2022/10/10 05:26:24;;;;;;;16.33;10.77;;;7.60;99.90;;;;;;5027889;28;20208;-76
2022/10/10 05:28:51;;;;;;;17.73;12.03;;;7.20;99.90;;;;;;5047797;28;20763;-78
2022/10/10 05:31:18;;;;;;;18.33;11.40;;;7.20;99.90;;;;;;5024203;28;20252;-80
2022/10/10 05:33:44;;;;;;;16.23;9.93;;;7.50;99.90;;;;;;5043178;28;21009;-77
2022/10/10 05:36:12;;;;;;;16.60;11.23;;;7.20;99.90;;;;;;5026724;28;20284;-78
2022/10/10 05:38:40;;;;;;;17.37;10.70;;;7.20;99.90;;;;;;5046752;28;20759;-79
2022/10/10 05:41:07;;;;;;;16.17;10.63;;;7.20;99.90;;;;;;5040844;28;20699;-78
2022/10/10 05:43:35;;;;;;;18.43;10.77;;;7.20;99.90;;;;;;5048256;28;20748;-79
2022/10/10 05:46:02;;;;;;;22.07;12.63;;;7.30;99.90;;;;;;5045737;28;20307;-78
2022/10/10 05:48:29;;;;;;;16.30;10.93;;;7.30;99.90;;;;;;5044056;28;20290;-78
2022/10/10 05:50:58;;;;;;;17.00;11.00;;;7.20;99.90;;;;;;5029010;28;20524;-78
2022/10/10 05:53:27;;;;;;;16.27;10.17;;;7.20;99.90;;;;;;5027262;28;20205;-78
2022/10/10 05:55:55;;;;;;;17.80;11.53;;;7.60;99.90;;;;;;5048287;28;20232;-78
2022/10/10 05:58:21;;;;;;;22.23;11.03;;;7.30;99.90;;;;;;5051147;28;20596;-80
2022/10/10 06:00:48;;;;;;;18.27;11.20;;;7.50;99.90;;;;;;5042855;28;20205;-79
2022/10/10 06:03:16;;;;;;;16.27;10.30;;;7.30;99.90;;;;;;5052912;28;20684;-79
2022/10/10 06:05:44;;;;;;;18.27;11.13;;;7.30;99.90;;;;;;5060939;28;20204;-78
2022/10/10 06:08:11;;;;;;;20.20;11.17;;;7.40;99.90;;;;;;5054323;28;20646;-77
2022/10/10 06:10:41;;;;;;;19.17;11.10;;;7.30;99.90;;;;;;5050283;28;20223;-77
2022/10/10 06:13:09;;;;;;;17.70;10.67;;;7.30;99.90;;;;;;5050796;28;20235;-77
2022/10/10 06:15:36;;;;;;;17.17;10.13;;;7.40;99.90;;;;;;5027345;28;20201;-76
2022/10/10 06:18:04;;;;;;;19.30;11.63;;;7.40;99.90;;;;;;5051010;28;20235;-79
2022/10/10 06:20:37;;;;;;;16.90;10.90;;;7.50;99.90;;;;;;5047189;28;20205;-77
2022/10/10 06:23:05;;;;;;;16.03;10.17;;;7.50;99.90;;;;;;5049497;28;20631;-78
2022/10/10 06:25:34;;;;;;;19.33;10.50;;;7.50;99.90;;;;;;5047516;28;20284;-78
2022/10/10 06:28:07;;;;;;;16.60;10.37;;;7.60;99.90;;;;;;5045178;28;20213;-80
2022/10/10 06:30:39;;;;;;;15.33;10.33;;;7.60;99.90;;;;;;5040248;28;20201;-77
2022/10/10 06:33:06;;;;;;;19.27;10.93;;;7.60;99.90;;;;;;5027076;28;20229;-78
2022/10/10 06:35:36;;;;;;;18.33;10.60;;;7.70;99.90;;;;;;5022620;28;20215;-79
2022/10/10 06:38:06;;;;;;;18.33;10.53;;;7.70;99.90;;;;;;5039773;28;20351;-79
2022/10/10 06:40:33;;;;;;;17.17;10.17;;;7.80;99.90;;;;;;5048290;28;20243;-78
2022/10/10 06:43:00;;;;;;;17.80;10.63;;;7.90;99.90;;;;;;5042954;28;20730;-80
2022/10/10 06:45:27;;;;;;;18.73;10.70;;;8.00;99.90;;;;;;5040241;28;20293;-80
2022/10/10 06:47:54;;;;;;;16.03;10.13;;;8.10;99.90;;;;;;5039075;28;20273;-79
2022/10/10 06:50:21;;;;;;;18.30;10.10;;;8.20;99.90;;;;;;5041827;28;20659;-78
2022/10/10 06:52:48;;;;;;;17.87;10.17;;;8.50;99.90;;;;;;5044415;28;20212;-81
2022/10/10 06:55:15;;;;;;;14.53;9.57;;;8.40;99.90;;;;;;5040916;28;20202;-79
2022/10/10 06:57:42;;;;;;;15.33;9.90;;;8.50;99.90;;;;;;5046171;28;20278;-79
2022/10/10 07:00:09;;;;;;;14.67;9.60;;;8.60;99.90;;;;;;5042442;28;20302;-80
2022/10/10 07:02:39;;;;;;;16.23;9.73;;;8.60;99.90;;;;;;5036826;28;20333;-78
2022/10/10 07:05:10;;;;;;;14.13;9.50;;;8.70;99.90;;;;;;5037699;28;20212;-79
2022/10/10 07:07:38;;;;;;;18.67;9.87;;;8.70;99.90;;;;;;5034955;28;20221;-78
2022/10/10 07:10:06;;;;;;;13.37;9.00;;;8.80;99.90;;;;;;5039665;28;20775;-79
2022/10/10 07:12:33;;;;;;;15.47;9.67;;;8.80;99.90;;;;;;5044831;28;20199;-77
2022/10/10 07:15:11;;;;;;;15.40;9.93;;;8.90;99.90;;;;;;5037759;28;20205;-81
2022/10/10 07:17:38;;;;;;;17.70;10.07;;;9.10;99.90;;;;;;5017497;28;20229;-81
2022/10/10 07:20:06;;;;;;;16.03;10.03;;;9.50;99.90;;;;;;5040102;28;20307;-82
2022/10/10 07:22:32;;;;;;;15.53;9.97;;;9.20;99.90;;;;;;5038998;28;20295;-79
2022/10/10 07:24:59;;;;;;;16.50;9.33;;;9.30;99.90;;;;;;5019342;28;20248;-80
2022/10/10 07:27:26;;;;;;;17.27;9.40;;;9.40;99.90;;;;;;5038537;28;20411;-79
2022/10/10 07:29:53;;;;;;;16.50;9.87;;;9.50;99.90;;;;;;5039117;28;20240;-80
2022/10/10 07:32:20;;;;;;;17.73;10.13;;;9.60;99.90;;;;;;5020542;28;20241;-78
2022/10/10 07:34:47;;;;;;;13.13;9.43;;;9.80;99.90;;;;;;5041694;28;20716;-79
2022/10/10 07:37:13;;;;;;;24.00;10.83;;;9.80;99.90;;;;;;5033244;28;20230;-79
2022/10/10 07:39:41;;;;;;;13.90;10.10;;;9.90;99.90;;;;;;5036819;28;20260;-79
2022/10/10 07:42:08;;;;;;;18.03;9.87;;;10.00;99.90;;;;;;5035177;28;20198;-79
2022/10/10 07:44:34;;;;;;;13.80;10.40;;;10.00;99.90;;;;;;5035721;28;20609;-78
2022/10/10 07:47:01;;;;;;;14.20;9.30;;;10.20;99.90;;;;;;5019452;28;20228;-80
2022/10/10 07:49:28;;;;;;;13.63;10.20;;;10.30;99.90;;;;;;5019190;28;20724;-78
2022/10/10 07:51:55;;;;;;;13.50;9.60;;;10.40;99.90;;;;;;5036891;28;20581;-79
2022/10/10 07:54:27;;;;;;;17.53;9.77;;;10.50;99.90;;;;;;5018586;28;20209;-79
2022/10/10 07:56:54;;;;;;;17.10;9.07;;;10.70;99.90;;;;;;5037973;28;20646;-79
2022/10/10 07:59:22;;;;;;;14.03;8.73;;;10.80;99.90;;;;;;5037081;28;20227;-79
2022/10/10 08:01:50;;;;;;;14.17;7.87;;;10.90;99.90;;;;;;5044478;28;20239;-78
2022/10/10 08:04:17;;;;;;;17.37;9.30;;;11.10;99.90;;;;;;5042765;28;20204;-78
2022/10/10 08:06:44;;;;;;;14.27;8.13;;;11.20;99.90;;;;;;5043560;28;20205;-78
2022/10/10 08:09:11;;;;;;;16.00;8.60;;;11.60;99.90;;;;;;5045621;28;20213;-79
2022/10/10 08:11:38;;;;;;;13.20;8.30;;;11.50;99.90;;;;;;5038537;28;20240;-78
2022/10/10 08:14:05;;;;;;;14.70;8.03;;;11.60;99.90;;;;;;5036752;28;20384;-78
2022/10/10 08:16:32;;;;;;;12.23;8.23;;;11.70;99.90;;;;;;5021843;28;20605;-79
2022/10/10 08:18:59;;;;;;;10.00;7.27;;;11.80;99.90;;;;;;5019579;28;20232;-78
2022/10/10 08:21:26;;;;;;;11.90;7.40;;;12.00;99.90;;;;;;5019440;28;20232;-79
2022/10/10 08:23:54;;;;;;;14.07;7.20;;;12.10;99.90;;;;;;5033162;28;20515;-79
2022/10/10 08:26:21;;;;;;;12.40;7.57;;;12.20;99.90;;;;;;5038601;28;20210;-78
2022/10/10 08:28:48;;;;;;;9.17;6.87;;;12.30;99.90;;;;;;5034766;28;20210;-77
2022/10/10 08:31:18;;;;;;;11.00;7.17;;;12.40;99.90;;;;;;5039255;28;20870;-78
2022/10/10 08:33:47;;;;;;;17.13;8.47;;;12.50;99.90;;;;;;5037349;28;20317;-78
2022/10/10 08:36:19;;;;;;;13.03;7.30;;;12.60;99.90;;;;;;5036509;28;20252;-80
2022/10/10 08:38:47;;;;;;;9.80;6.60;;;12.60;99.90;;;;;;5033153;28;20230;-79
2022/10/10 08:41:29;;;;;;;13.53;7.13;;;12.70;99.90;;;;;;5018794;28;20303;-80
2022/10/10 08:44:04;;;;;;;12.77;6.50;;;12.80;99.90;;;;;;5035093;28;20289;-79
2022/10/10 08:47:02;;;;;;;13.53;7.87;;;12.90;99.90;;;;;;5036412;28;20225;-78
2022/10/10 08:49:33;;;;;;;12.63;6.60;;;12.90;99.90;;;;;;5036438;28;20214;-79
2022/10/10 08:52:21;;;;;;;15.23;6.70;;;13.00;99.90;;;;;;5037817;28;20205;-79
2022/10/10 08:54:50;;;;;;;13.60;6.73;;;13.10;99.90;;;;;;5038206;28;20324;-80
2022/10/10 08:57:28;;;;;;;10.30;7.37;;;13.20;99.90;;;;;;5040933;28;20208;-79
2022/10/10 09:00:01;;;;;;;11.53;7.30;;;13.30;99.90;;;;;;5022057;28;20660;-79
2022/10/10 09:02:57;;;;;;;12.03;6.73;;;13.30;99.90;;;;;;5023555;28;20224;-78
2022/10/10 09:05:39;;;;;;;10.47;6.00;;;13.40;99.90;;;;;;5039618;28;20248;-79
2022/10/10 09:08:11;;;;;;;15.83;7.03;;;13.40;99.90;;;;;;5038876;28;20295;-80
2022/10/10 09:11:01;;;;;;;11.23;6.20;;;13.50;99.90;;;;;;5020097;28;20933;-80
2022/10/10 09:13:33;;;;;;;7.90;6.70;;;13.60;99.90;;;;;;5038462;28;20265;-80
2022/10/10 09:16:25;;;;;;;11.53;6.50;;;13.70;99.90;;;;;;5038509;28;20328;-80
2022/10/10 09:19:03;;;;;;;11.10;6.67;;;13.90;99.90;;;;;;5029921;28;20229;-79
2022/10/10 09:21:36;;;;;;;12.50;6.20;;;14.10;99.90;;;;;;5037098;28;20222;-78
2022/10/10 09:24:11;;;;;;;8.57;5.80;;;14.40;99.90;;;;;;5038466;28;20260;-79
2022/10/10 09:26:48;;;;;;;10.63;6.47;;;14.60;99.90;;;;;;5040045;28;20236;-79
2022/10/10 09:29:48;;;;;;;11.67;6.00;;;14.60;99.90;;;;;;5039898;28;20270;-79
2022/10/10 09:32:22;;;;;;;9.87;6.07;;;14.80;99.90;;;;;;5036156;28;20233;-79
2022/10/10 09:35:15;;;;;;;9.83;6.40;;;14.90;99.90;;;;;;5041095;28;20206;-80
2022/10/10 09:37:44;;;;;;;12.23;6.40;;;15.00;99.90;;;;;;5036965;28;20303;-79
2022/10/10 09:40:23;;;;;;;11.23;5.83;;;15.30;99.90;;;;;;5027927;28;20713;-78
2022/10/10 09:42:50;;;;;;;9.90;5.47;;;15.30;99.90;;;;;;5029266;28;20223;-79
2022/10/10 09:45:24;;;;;;;10.40;5.70;;;15.50;99.90;;;;;;5034037;28;20240;-80
2022/10/10 09:47:54;;;;;;;9.67;5.20;;;15.50;99.90;;;;;;5037187;28;20332;-80
2022/10/10 09:50:30;;;;;;;9.83;5.80;;;15.60;99.90;;;;;;5037745;28;20217;-80
2022/10/10 09:52:58;;;;;;;9.80;5.60;;;15.70;99.90;;;;;;5040143;28;20304;-80
2022/10/10 09:55:36;;;;;;;10.57;5.90;;;15.70;99.90;;;;;;5040009;28;20213;-79
2022/10/10 09:58:30;;;;;;;8.23;5.70;;;16.20;99.90;;;;;;5047674;28;20294;-78
2022/10/10 10:01:19;;;;;;;10.43;5.07;;;15.80;99.90;;;;;;5038146;28;20237;-80
2022/10/10 10:04:08;;;;;;;8.20;5.20;;;15.80;99.90;;;;;;5018491;28;20748;-82
2022/10/10 10:07:16;;;;;;;10.55;5.47;;;15.90;99.90;;;;;;5035493;28;20202;-80
2022/10/10 10:09:47;;;;;;;8.18;5.35;;;16.00;99.90;;;;;;5039769;28;20579;-80
2022/10/10 10:12:21;;;;;;;11.20;5.72;;;16.30;99.90;;;;;;5038295;28;20218;-80
2022/10/10 10:14:49;;;;;;;8.50;5.82;;;;;;;;;;5036874;28;20268;-83
2022/10/10 10:17:21;;;;;;;9.23;5.55;;;16.20;99.90;;;;;;5035533;28;20311;-80
2022/10/10 10:19:48;;;;;;;7.38;5.35;;;16.30;99.90;;;;;;5041554;28;20260;-80
2022/10/10 10:22:30;;;;;;;10.95;5.63;;;16.30;99.90;;;;;;5038573;28;20932;-81
2022/10/10 10:24:58;;;;;;;10.52;5.40;;;16.40;99.90;;;;;;5038734;28;20495;-80
2022/10/10 10:27:28;;;;;;;10.38;4.97;;;16.40;99.90;;;;;;5036024;28;20209;-80
2022/10/10 10:29:57;;;;;;;15.13;5.97;;;16.40;99.90;;;;;;5044606;28;20336;-83
2022/10/10 10:32:49;;;;;;;9.45;5.10;;;16.50;99.90;;;;;;5024640;28;20257;-80
2022/10/10 10:35:40;;;;;;;7.47;5.38;;;16.60;99.90;;;;;;5019892;28;20272;-79
2022/10/10 10:38:13;;;;;;;10.40;5.38;;;16.70;99.90;;;;;;5039683;28;20304;-80
2022/10/10 10:40:49;;;;;;;7.68;4.75;;;16.70;99.90;;;;;;5037315;28;20230;-81
2022/10/10 10:43:29;;;;;;;7.63;4.75;;;16.70;99.90;;;;;;5021003;28;20292;-79
2022/10/10 10:46:07;;;;;;;9.38;5.38;;;16.80;99.90;;;;;;5038264;28;20267;-81
2022/10/10 10:48:34;;;;;;;6.65;4.78;;;16.80;99.90;;;;;;5042978;28;20247;-80
2022/10/10 10:51:27;;;;;;;11.55;5.05;;;16.80;99.90;;;;;;5037459;28;20287;-79
2022/10/10 10:54:06;;;;;;;10.38;5.90;;;16.90;99.90;;;;;;5010013;28;20217;-81
2022/10/10 10:56:38;;;;;;;10.32;5.30;;;16.90;99.90;;;;;;5038272;28;20253;-80
2022/10/10 10:59:23;;;;;;;9.02;5.15;;;16.90;99.90;;;;;;5042151;28;20194;-80
2022/10/10 11:02:23;;;;;;;9.55;5.65;;;17.00;99.90;;;;;;5038012;28;20229;-80
2022/10/10 11:05:43;;;;;;;8.52;5.30;;;17.00;99.90;;;;;;5038698;28;20216;-81
2022/10/10 11:08:38;;;;;;;9.95;5.45;;;17.00;99.90;;;;;;5040728;28;20255;-81
2022/10/10 11:11:19;;;;;;;9.65;5.07;;;17.10;99.90;;;;;;5039391;28;20206;-79
2022/10/10 11:14:03;;;;;;;10.50;5.40;;;17.10;99.90;;;;;;5035686;28;20209;-81
2022/10/10 11:16:40;;;;;;;11.00;5.93;;;17.20;99.90;;;;;;5019675;28;20636;-81
2022/10/10 11:19:22;;;;;;;12.77;6.40;;;17.10;99.90;;;;;;5023384;28;20293;-79
2022/10/10 11:21:55;;;;;;;9.75;6.60;;;17.10;99.90;;;;;;5035449;28;20205;-80
2022/10/10 11:24:43;;;;;;;9.52;5.10;;;17.10;99.90;;;;;;5036187;28;20280;-80
2022/10/10 11:27:19;;;;;;;12.10;6.03;;;17.30;99.90;;;;;;5038790;28;20229;-81
2022/10/10 11:29:58;;;;;;;11.57;6.40;;;17.30;99.90;;;;;;5039442;28;20692;-80
2022/10/10 11:32:32;;;;;;;9.48;6.07;;;17.20;99.90;;;;;;5036258;28;20238;-78
2022/10/10 11:35:06;;;;;;;12.52;6.78;;;17.20;99.90;;;;;;5019833;28;20612;-79
2022/10/10 11:37:45;;;;;;;11.85;6.32;;;17.30;99.90;;;;;;5034441;28;20753;-80
2022/10/10 11:40:51;;;;;;;10.32;6.70;;;17.40;99.90;;;;;;5038602;28;20251;-80
2022/10/10 11:43:38;;;;;;;10.93;6.68;;;17.70;99.90;;;;;;4997146;28;20586;-81
2022/10/10 11:46:17;;;;;;;9.38;6.45;;;17.80;99.90;;;;;;5019615;28;20280;-80
2022/10/10 11:48:55;;;;;;;10.48;6.50;;;17.80;99.90;;;;;;5005453;28;20621;-78
2022/10/10 11:51:40;;;;;;;10.38;6.65;;;17.90;99.90;;;;;;5026507;28;20245;-80
2022/10/10 11:54:28;;;;;;;13.65;7.35;;;17.90;99.90;;;;;;5018273;28;20217;-81
2022/10/10 11:57:01;;;;;;;11.55;6.90;;;17.90;99.90;;;;;;5037130;28;20229;-80
2022/10/10 11:59:52;;;;;;;13.27;7.03;;;18.00;99.90;;;;;;5042578;28;20202;-79
2022/10/10 12:02:39;;;;;;;14.45;7.13;;;18.20;99.90;;;;;;5035910;28;20761;-80
2022/10/10 12:05:18;;;;;;;16.85;7.25;;;18.40;99.90;;;;;;5020268;28;20209;-80
2022/10/10 12:07:58;;;;;;;12.65;7.35;;;;;;;;;;5036132;28;20297;-79
2022/10/10 12:10:29;;;;;;;13.00;6.30;;;18.70;99.90;;;;;;5043247;28;20617;-80
2022/10/10 12:13:07;;;;;;;12.80;7.32;;;18.70;99.90;;;;;;5020735;28;20232;-79
2022/10/10 12:15:37;;;;;;;12.32;6.72;;;18.70;99.90;;;;;;5034064;28;20205;-79
2022/10/10 12:18:26;;;;;;;11.38;5.85;;;18.70;99.90;;;;;;5038208;28;20610;-79
2022/10/10 12:21:12;;;;;;;10.75;7.10;;;18.50;99.90;;;;;;5041815;28;20759;-79
2022/10/10 12:23:41;;;;;;;15.75;7.10;;;18.40;99.90;;;;;;5035457;28;20201;-78
2022/10/10 12:26:18;;;;;;;15.63;7.80;;;18.30;99.90;;;;;;5040879;28;20252;-80
2022/10/10 12:29:08;;;;;;;11.65;7.38;;;18.20;99.90;;;;;;5030001;28;20427;-79
2022/10/10 12:31:36;;;;;;;16.13;8.07;;;18.10;99.90;;;;;;5041409;28;20228;-79
2022/10/10 12:34:13;;;;;;;13.02;7.80;;;18.00;99.90;;;;;;5024902;28;20233;-79
2022/10/10 12:36:52;;;;;;;13.93;7.25;;;17.90;99.90;;;;;;5040977;28;20216;-81
2022/10/10 12:39:19;;;;;;;11.80;7.35;;;17.90;99.90;;;;;;5040790;28;20206;-80
2022/10/10 12:41:49;;;;;;;13.43;8.00;;;17.80;99.90;;;;;;5021123;28;20257;-81
2022/10/10 12:44:43;;;;;;;12.57;8.27;;;17.70;99.90;;;;;;5038045;28;20246;-81
2022/10/10 12:47:13;;;;;;;16.58;7.90;;;17.70;99.90;;;;;;5019144;28;20583;-79
2022/10/10 12:49:57;;;;;;;17.67;7.82;;;17.50;99.90;;;;;;5043327;28;20205;-79
2022/10/10 12:52:36;;;;;;;13.93;8.07;;;17.50;99.90;;;;;;5040102;28;20213;-78
2022/10/10 12:55:25;;;;;;;14.85;8.80;;;17.30;99.90;;;;;;5040404;28;20333;-79
2022/10/10 12:58:00;;;;;;;13.77;8.13;;;17.30;99.90;;;;;;5023135;28;20354;-78
2022/10/10 13:00:38;;;;;;;14.32;8.75;;;17.20;99.90;;;;;;5040522;28;20697;-77
2022/10/10 13:03:16;;;;;;;13.02;8.82;;;17.10;99.90;;;;;;5038893;28;20296;-77
2022/10/10 13:05:43;;;;;;;13.45;9.40;;;17.10;99.90;;;;;;5038703;28;20216;-79
2022/10/10 13:08:17;;;;;;;17.65;9.52;;;16.90;99.90;;;;;;5040231;28;20201;-78